Observation data for Guthrie on 11/19/2019      Previous  Date  Next       Current Mesonet Observations  Soil Data  Daily Summary Page  Observations in Plain Language
KPFS 190600Z 23003KT 11/01 A2994 RMK A01 T01140012  RH  050%=      5-min Rain = 0
KPFS 190605Z 24003KT 12/01 A2994 RMK A01 T01160012  RH  050%=      5-min Rain = 0
KPFS 190610Z 24003KT 12/01 A2994 RMK A01 T01180012  RH  049%=      5-min Rain = 0
KPFS 190615Z 26002KT 11/01 A2994 RMK A01 T01130012  RH  050%=      5-min Rain = 0
KPFS 190620Z 26002KT 11/01 A2994 RMK A01 T01120012  RH  051%=      5-min Rain = 0
KPFS 190625Z 26002KT 11/01 A2994 RMK A01 T01130012  RH  051%=      5-min Rain = 0
KPFS 190630Z 29002KT 11/01 A2994 RMK A01 T01110012  RH  051%=      5-min Rain = 0
KPFS 190635Z 30003KT 11/01 A2994 RMK A01 T01100012  RH  052%=      5-min Rain = 0
KPFS 190640Z 29003KT 11/01 A2994 RMK A01 T01070012  RH  053%=      5-min Rain = 0
KPFS 190645Z 27003KT 11/01 A2994 RMK A01 T01050012  RH  054%=      5-min Rain = 0
KPFS 190650Z 27004KT 11/01 A2994 RMK A01 T01070013  RH  053%=      5-min Rain = 0
KPFS 190655Z 27003KT 11/01 A2994 RMK A01 T01100013  RH  052%=      5-min Rain = 0
KPFS 190700Z 28002KT 11/01 A2994 RMK A01 T01110013  RH  052%=      5-min Rain = 0
KPFS 190705Z 26003KT 11/01 A2994 RMK A01 T01090013  RH  052%=      5-min Rain = 0
KPFS 190710Z 26003KT 11/01 A2994 RMK A01 T01070012  RH  053%=      5-min Rain = 0
KPFS 190715Z 25003KT 11/01 A2994 RMK A01 T01100013  RH  052%=      5-min Rain = 0
KPFS 190720Z 25002KT 11/01 A2994 RMK A01 T01120013  RH  051%=      5-min Rain = 0
KPFS 190725Z 24002KT 11/01 A2994 RMK A01 T01120013  RH  051%=      5-min Rain = 0
KPFS 190730Z 24002KT 11/01 A2994 RMK A01 T01100012  RH  052%=      5-min Rain = 0
KPFS 190735Z 26002KT 11/01 A2993 RMK A01 T01090012  RH  052%=      5-min Rain = 0
KPFS 190740Z 27002KT 11/01 A2993 RMK A01 T01090012  RH  052%=      5-min Rain = 0
KPFS 190745Z 26002KT 11/01 A2993 RMK A01 T01110012  RH  051%=      5-min Rain = 0
KPFS 190750Z 24002KT 11/01 A2993 RMK A01 T01140012  RH  050%=      5-min Rain = 0
KPFS 190755Z 24002KT 12/01 A2993 RMK A01 T01150012  RH  050%=      5-min Rain = 0
KPFS 190800Z 26002KT 11/01 A2993 RMK A01 T01120012  RH  051%=      5-min Rain = 0
KPFS 190805Z 26002KT 11/01 A2993 RMK A01 T01100012  RH  051%=      5-min Rain = 0
KPFS 190810Z 23002KT 10/01 A2994 RMK A01 T01020011  RH  054%=      5-min Rain = 0
KPFS 190815Z 22003KT 09/01 A2994 RMK A01 T00940012  RH  057%=      5-min Rain = 0
KPFS 190820Z 21002KT 09/01 A2994 RMK A01 T00930013  RH  058%=      5-min Rain = 0
KPFS 190825Z 20003KT 10/01 A2994 RMK A01 T00950013  RH  057%=      5-min Rain = 0
KPFS 190830Z 21003KT 09/01 A2994 RMK A01 T00930013  RH  058%=      5-min Rain = 0
KPFS 190835Z 21003KT 09/01 A2994 RMK A01 T00910013  RH  059%=      5-min Rain = 0
KPFS 190840Z 21004KT 09/01 A2994 RMK A01 T00880013  RH  060%=      5-min Rain = 0
KPFS 190845Z 22003KT 09/01 A2994 RMK A01 T00890013  RH  060%=      5-min Rain = 0
KPFS 190850Z 23003KT 09/01 A2994 RMK A01 T00910013  RH  059%=      5-min Rain = 0
KPFS 190855Z 24003KT 09/01 A2994 RMK A01 T00930013  RH  058%=      5-min Rain = 0
KPFS 190900Z 24003KT 10/01 A2994 RMK A01 T00950013  RH  057%=      5-min Rain = 0
KPFS 190905Z 23002KT 10/01 A2994 RMK A01 T01000013  RH  056%=      5-min Rain = 0
KPFS 190910Z 23002KT 10/01 A2993 RMK A01 T01030013  RH  054%=      5-min Rain = 0
KPFS 190915Z 21003KT 11/01 A2993 RMK A01 T01060013  RH  053%=      5-min Rain = 0
KPFS 190920Z 20003KT 10/01 A2993 RMK A01 T01020013  RH  055%=      5-min Rain = 0
KPFS 190925Z 20004KT 10/01 A2993 RMK A01 T00970013  RH  057%=      5-min Rain = 0
KPFS 190930Z 21004KT 10/01 A2993 RMK A01 T00960014  RH  057%=      5-min Rain = 0
KPFS 190935Z 21004KT 10/01 A2993 RMK A01 T00990014  RH  056%=      5-min Rain = 0
KPFS 190940Z 21004KT 10/01 A2993 RMK A01 T01000014  RH  056%=      5-min Rain = 0
KPFS 190945Z 21004KT 10/01 A2993 RMK A01 T01020014  RH  055%=      5-min Rain = 0
KPFS 190950Z 22003KT 10/01 A2993 RMK A01 T01030013  RH  055%=      5-min Rain = 0
KPFS 190955Z 24003KT 11/01 A2993 RMK A01 T01050013  RH  054%=      5-min Rain = 0
KPFS 191000Z 24004KT 11/01 A2993 RMK A01 T01060013  RH  053%=      5-min Rain = 0
KPFS 191005Z 24003KT 10/01 A2994 RMK A01 T01040012  RH  054%=      5-min Rain = 0
KPFS 191010Z 23003KT 10/01 A2994 RMK A01 T01030012  RH  054%=      5-min Rain = 0
KPFS 191015Z 25002KT 10/01 A2994 RMK A01 T01000012  RH  055%=      5-min Rain = 0
KPFS 191020Z 22002KT 10/01 A2994 RMK A01 T00980012  RH  056%=      5-min Rain = 0
KPFS 191025Z 22002KT 10/01 A2994 RMK A01 T00960012  RH  057%=      5-min Rain = 0
KPFS 191030Z 22002KT 10/01 A2994 RMK A01 T00960013  RH  057%=      5-min Rain = 0
KPFS 191035Z 22002KT 09/01 A2994 RMK A01 T00940012  RH  057%=      5-min Rain = 0
KPFS 191040Z 24002KT 10/01 A2994 RMK A01 T00950013  RH  057%=      5-min Rain = 0
KPFS 191045Z 25002KT 10/01 A2994 RMK A01 T01030013  RH  054%=      5-min Rain = 0
KPFS 191050Z 26002KT 11/01 A2994 RMK A01 T01050012  RH  053%=      5-min Rain = 0
KPFS 191055Z 25002KT 11/01 A2994 RMK A01 T01100013  RH  052%=      5-min Rain = 0
KPFS 191100Z 22002KT 11/01 A2994 RMK A01 T01110012  RH  051%=      5-min Rain = 0
KPFS 191105Z 22002KT 11/01 A2994 RMK A01 T01060012  RH  053%=      5-min Rain = 0
KPFS 191110Z 25001KT 11/01 A2994 RMK A01 T01050012  RH  054%=      5-min Rain = 0
KPFS 191115Z 23001KT 11/01 A2994 RMK A01 T01090012  RH  052%=      5-min Rain = 0
KPFS 191120Z 20001KT 11/01 A2994 RMK A01 T01050012  RH  053%=      5-min Rain = 0
KPFS 191125Z 30002KT 11/01 A2994 RMK A01 T01050012  RH  053%=      5-min Rain = 0
KPFS 191130Z 31003KT 11/01 A2993 RMK A01 T01140012  RH  050%=      5-min Rain = 0
KPFS 191135Z 31002KT 12/01 A2994 RMK A01 T01180012  RH  049%=      5-min Rain = 0
KPFS 191140Z 30002KT 12/01 A2994 RMK A01 T01160011  RH  049%=      5-min Rain = 0
KPFS 191145Z 31003KT 12/01 A2994 RMK A01 T01170011  RH  049%=      5-min Rain = 0
KPFS 191150Z 33003KT 12/01 A2994 RMK A01 T01150011  RH  050%=      5-min Rain = 0
KPFS 191155Z 33003KT 11/01 A2994 RMK A01 T01110011  RH  051%=      5-min Rain = 0
KPFS 191200Z 33003KT 11/01 A2994 RMK A01 T01090011  RH  052%=      5-min Rain = 0
KPFS 191205Z 35003KT 11/01 A2993 RMK A01 T01080012  RH  052%=      5-min Rain = 0
KPFS 191210Z 35004KT 11/01 A2993 RMK A01 T01080012  RH  052%=      5-min Rain = 0
KPFS 191215Z 36004KT 11/01 A2993 RMK A01 T01070012  RH  053%=      5-min Rain = 0
KPFS 191220Z 35004KT 10/01 A2993 RMK A01 T01030012  RH  054%=      5-min Rain = 0
KPFS 191225Z 00004KT 10/01 A2993 RMK A01 T01040013  RH  054%=      5-min Rain = 0
KPFS 191230Z 01006KT 09/01 A2993 RMK A01 T00930012  RH  058%=      5-min Rain = 0
KPFS 191235Z 01006KT 07/01 A2993 RMK A01 T00740010  RH  065%=      5-min Rain = 0
KPFS 191240Z 02006KT 07/01 A2993 RMK A01 T00680011  RH  068%=      5-min Rain = 0
KPFS 191245Z 01004KT 07/01 A2993 RMK A01 T00690011  RH  068%=      5-min Rain = 0
KPFS 191250Z 00004KT 07/01 A2993 RMK A01 T00660010  RH  068%=      5-min Rain = 0
KPFS 191255Z 03003KT 06/01 A2993 RMK A01 T00630009  RH  069%=      5-min Rain = 0
KPFS 191300Z 04003KT 06/01 A2994 RMK A01 T00590008  RH  071%=      5-min Rain = 0
KPFS 191305Z 05002KT 05/01 A2994 RMK A01 T00540006  RH  072%=      5-min Rain = 0
KPFS 191310Z 06003KT 05/01 A2994 RMK A01 T00510007  RH  074%=      5-min Rain = 0
KPFS 191315Z 06002KT 05/01 A2994 RMK A01 T00520009  RH  075%=      5-min Rain = 0
KPFS 191320Z 05004KT 05/01 A2994 RMK A01 T00530010  RH  075%=      5-min Rain = 0
KPFS 191325Z 05002KT 06/01 A2994 RMK A01 T00570011  RH  074%=      5-min Rain = 0
KPFS 191330Z 07000KT 06/01 A2994 RMK A01 T00590011  RH  072%=      5-min Rain = 0
KPFS 191335Z 14002KT 06/01 A2994 RMK A01 T00600011  RH  072%=      5-min Rain = 0
KPFS 191340Z 16002KT 06/01 A2994 RMK A01 T00620013  RH  072%=      5-min Rain = 0
KPFS 191345Z 17003KT 06/01 A2994 RMK A01 T00620013  RH  072%=      5-min Rain = 0
KPFS 191350Z 16005KT 07/02 A2994 RMK A01 T00650017  RH  072%=      5-min Rain = 0
KPFS 191355Z 16006KT 07/02 A2994 RMK A01 T00680017  RH  071%=      5-min Rain = 0
KPFS 191400Z 17006KT 07/02 A2994 RMK A01 T00700018  RH  071%=      5-min Rain = 0
KPFS 191405Z 17006KT 07/02 A2995 RMK A01 T00700019  RH  071%=      5-min Rain = 0
KPFS 191410Z 17006KT 07/02 A2995 RMK A01 T00740021  RH  070%=      5-min Rain = 0
KPFS 191415Z 15007KT 08/02 A2995 RMK A01 T00780023  RH  069%=      5-min Rain = 0
KPFS 191420Z 16008KT 08/02 A2995 RMK A01 T00840024  RH  067%=      5-min Rain = 0
KPFS 191425Z 17005KT 09/03 A2995 RMK A01 T00890029  RH  067%=      5-min Rain = 0
KPFS 191430Z 17005KT 09/03 A2995 RMK A01 T00940031  RH  066%=      5-min Rain = 0
KPFS 191435Z 17006KT 09/03 A2995 RMK A01 T00940030  RH  065%=      5-min Rain = 0
KPFS 191440Z 16007KT 10/03 A2995 RMK A01 T01010033  RH  064%=      5-min Rain = 0
KPFS 191445Z 16008KT 11/03 A2995 RMK A01 T01110032  RH  059%=      5-min Rain = 0
KPFS 191450Z 17009KT 12/03 A2996 RMK A01 T01160032  RH  057%=      5-min Rain = 0
KPFS 191455Z 17007KT 12/03 A2996 RMK A01 T01190033  RH  057%=      5-min Rain = 0
KPFS 191500Z 16007KT 12/03 A2996 RMK A01 T01210034  RH  056%=      5-min Rain = 0
KPFS 191505Z 16006KT 12/03 A2995 RMK A01 T01220033  RH  056%=      5-min Rain = 0
KPFS 191510Z 15006KT 13/03 A2995 RMK A01 T01250033  RH  054%=      5-min Rain = 0
KPFS 191515Z 15005KT 13/03 A2995 RMK A01 T01260031  RH  053%=      5-min Rain = 0
KPFS 191520Z 15005KT 13/03 A2995 RMK A01 T01280031  RH  053%=      5-min Rain = 0
KPFS 191525Z 16004KT 13/04 A2995 RMK A01 T01330035  RH  052%=      5-min Rain = 0
KPFS 191530Z 15005KT 14/03 A2996 RMK A01 T01370033  RH  050%=      5-min Rain = 0
KPFS 191535Z 17004KT 14/03 A2996 RMK A01 T01430033  RH  048%=      5-min Rain = 0
KPFS 191540Z 18004KT 15/03 A2996 RMK A01 T01500032  RH  046%=      5-min Rain = 0
KPFS 191545Z 17005KT 16/03 A2996 RMK A01 T01550029  RH  043%=      5-min Rain = 0
KPFS 191550Z 16005KT 16/03 A2996 RMK A01 T01570028  RH  043%=      5-min Rain = 0
KPFS 191555Z 17006KT 16/03 A2996 RMK A01 T01640029  RH  041%=      5-min Rain = 0
KPFS 191600Z 19007KT 17/03 A2996 RMK A01 T01670026  RH  039%=      5-min Rain = 0
KPFS 191605Z 19006KT 17/03 A2996 RMK A01 T01720026  RH  038%=      5-min Rain = 0
KPFS 191610Z 18006KT 17/03 A2996 RMK A01 T01740025  RH  037%=      5-min Rain = 0
KPFS 191615Z 20006KT 18/03 A2995 RMK A01 T01810025  RH  036%=      5-min Rain = 0
KPFS 191620Z 21005KT 18/02 A2995 RMK A01 T01830023  RH  035%=      5-min Rain = 0
KPFS 191625Z 18006KT 19/02 A2995 RMK A01 T01880023  RH  034%=      5-min Rain = 0
KPFS 191630Z 19007KT 19/02 A2995 RMK A01 T01900023  RH  033%=      5-min Rain = 0
KPFS 191635Z 21007KT 20/02 A2995 RMK A01 T01950023  RH  032%=      5-min Rain = 0
KPFS 191640Z 20007KT 20/03 A2995 RMK A01 T01990026  RH  032%=      5-min Rain = 0
KPFS 191645Z 20007KT 20/03 A2995 RMK A01 T02000028  RH  032%=      5-min Rain = 0
KPFS 191650Z 21008KT 20/03 A2995 RMK A01 T01960027  RH  033%=      5-min Rain = 0
KPFS 191655Z 22010KT 20/03 A2995 RMK A01 T01960031  RH  034%=      5-min Rain = 0
KPFS 191700Z 21010KT 20/03 A2995 RMK A01 T02010033  RH  034%=      5-min Rain = 0
KPFS 191705Z 22009KT 20/03 A2994 RMK A01 T02010034  RH  034%=      5-min Rain = 0
KPFS 191710Z 22009KT 21/04 A2994 RMK A01 T02070035  RH  033%=      5-min Rain = 0
KPFS 191715Z 22009KT 21/04 A2994 RMK A01 T02070035  RH  033%=      5-min Rain = 0
KPFS 191720Z 22011KT 21/04 A2993 RMK A01 T02110037  RH  032%=      5-min Rain = 0
KPFS 191725Z 21011KT 21/04 A2993 RMK A01 T02130038  RH  032%=      5-min Rain = 0
KPFS 191730Z 20010KT 21/04 A2993 RMK A01 T02140038  RH  032%=      5-min Rain = 0
KPFS 191735Z 19012KT 22/04 A2993 RMK A01 T02180038  RH  031%=      5-min Rain = 0
KPFS 191740Z 19012KT 22/04 A2993 RMK A01 T02170039  RH  032%=      5-min Rain = 0
KPFS 191745Z 18012KT 22/04 A2992 RMK A01 T02170039  RH  032%=      5-min Rain = 0
KPFS 191750Z 19011KT 22/04 A2992 RMK A01 T02170040  RH  032%=      5-min Rain = 0
KPFS 191755Z 19011KT 23/04 A2992 RMK A01 T02270043  RH  031%=      5-min Rain = 0
KPFS 191800Z 20010G15KT 23/04 A2991 RMK A01 T02290043  RH  030%=      5-min Rain = 0
KPFS 191805Z 19012KT 23/04 A2991 RMK A01 T02280042  RH  030%=      5-min Rain = 0
KPFS 191810Z 20011KT 23/04 A2991 RMK A01 T02290042  RH  030%=      5-min Rain = 0
KPFS 191815Z 19010KT 24/04 A299 RMK A01 T02350044  RH  030%=      5-min Rain = 0
KPFS 191820Z 19010G16KT 24/04 A299 RMK A01 T02380044  RH  029%=      5-min Rain = 0
KPFS 191825Z 19013G18KT 23/04 A299 RMK A01 T02310040  RH  029%=      5-min Rain = 0
KPFS 191830Z 19010KT 23/04 A2989 RMK A01 T02330041  RH  029%=      5-min Rain = 0
KPFS 191835Z 19011G16KT 23/04 A2989 RMK A01 T02340042  RH  029%=      5-min Rain = 0
KPFS 191840Z 19010KT 23/04 A2989 RMK A01 T02330042  RH  030%=      5-min Rain = 0
KPFS 191845Z 19010KT 25/04 A2988 RMK A01 T02460043  RH  027%=      5-min Rain = 0
KPFS 191850Z 18011KT 25/04 A2988 RMK A01 T02460041  RH  027%=      5-min Rain = 0
KPFS 191855Z 19010KT 25/04 A2988 RMK A01 T02450041  RH  027%=      5-min Rain = 0
KPFS 191900Z 18011G16KT 25/04 A2988 RMK A01 T02500042  RH  026%=      5-min Rain = 0
KPFS 191905Z 19012G17KT 26/04 A2988 RMK A01 T02560039  RH  025%=      5-min Rain = 0
KPFS 191910Z 18012G18KT 25/04 A2987 RMK A01 T02540037  RH  025%=      5-min Rain = 0
KPFS 191915Z 18014G22KT 26/04 A2987 RMK A01 T02560035  RH  024%=      5-min Rain = 0
KPFS 191920Z 19013G18KT 26/03 A2986 RMK A01 T02560032  RH  024%=      5-min Rain = 0
KPFS 191925Z 18013KT 26/03 A2986 RMK A01 T02570033  RH  024%=      5-min Rain = 0
KPFS 191930Z 18011KT 26/04 A2986 RMK A01 T02620036  RH  024%=      5-min Rain = 0
KPFS 191935Z 19014G19KT 26/03 A2985 RMK A01 T02620033  RH  023%=      5-min Rain = 0
KPFS 191940Z 18014G21KT 26/03 A2985 RMK A01 T02610033  RH  023%=      5-min Rain = 0
KPFS 191945Z 18016G24KT 26/03 A2985 RMK A01 T02590033  RH  024%=      5-min Rain = 0
KPFS 191950Z 18016G23KT 26/03 A2985 RMK A01 T02570032  RH  024%=      5-min Rain = 0
KPFS 191955Z 19017G23KT 26/03 A2984 RMK A01 T02560030  RH  024%=      5-min Rain = 0
KPFS 192000Z 18017G24KT 26/03 A2984 RMK A01 T02590032  RH  023%=      5-min Rain = 0
KPFS 192005Z 18018G23KT 26/03 A2984 RMK A01 T02590033  RH  024%=      5-min Rain = 0
KPFS 192010Z 18017G22KT 26/03 A2984 RMK A01 T02600031  RH  023%=      5-min Rain = 0
KPFS 192015Z 19015G21KT 26/03 A2983 RMK A01 T02630033  RH  023%=      5-min Rain = 0
KPFS 192020Z 19014G20KT 26/03 A2983 RMK A01 T02610034  RH  023%=      5-min Rain = 0
KPFS 192025Z 18014G20KT 27/03 A2983 RMK A01 T02670034  RH  023%=      5-min Rain = 0
KPFS 192030Z 18013G19KT 27/03 A2983 RMK A01 T02660033  RH  023%=      5-min Rain = 0
KPFS 192035Z 18014G22KT 26/03 A2983 RMK A01 T02620034  RH  023%=      5-min Rain = 0
KPFS 192040Z 17015G22KT 27/04 A2983 RMK A01 T02650039  RH  024%=      5-min Rain = 0
KPFS 192045Z 18015KT 26/04 A2983 RMK A01 T02640040  RH  024%=      5-min Rain = 0
KPFS 192050Z 18017G23KT 26/04 A2982 RMK A01 T02620038  RH  024%=      5-min Rain = 0
KPFS 192055Z 18016G22KT 26/04 A2982 RMK A01 T02610037  RH  024%=      5-min Rain = 0
KPFS 192100Z 17016G21KT 26/04 A2982 RMK A01 T02630039  RH  024%=      5-min Rain = 0
KPFS 192105Z 19013G19KT 26/04 A2982 RMK A01 T02630036  RH  023%=      5-min Rain = 0
KPFS 192110Z 18012G17KT 27/04 A2982 RMK A01 T02690042  RH  024%=      5-min Rain = 0
KPFS 192115Z 18015G23KT 27/04 A2981 RMK A01 T02660039  RH  024%=      5-min Rain = 0
KPFS 192120Z 18014G20KT 27/03 A2981 RMK A01 T02650031  RH  022%=      5-min Rain = 0
KPFS 192125Z 18014G19KT 27/03 A2981 RMK A01 T02660034  RH  023%=      5-min Rain = 0
KPFS 192130Z 19014KT 27/03 A2981 RMK A01 T02660032  RH  023%=      5-min Rain = 0
KPFS 192135Z 17015G20KT 27/03 A2981 RMK A01 T02650032  RH  023%=      5-min Rain = 0
KPFS 192140Z 17013G19KT 27/03 A2981 RMK A01 T02660033  RH  023%=      5-min Rain = 0
KPFS 192145Z 17015G20KT 26/03 A298 RMK A01 T02640034  RH  023%=      5-min Rain = 0
KPFS 192150Z 17013G20KT 27/03 A298 RMK A01 T02660033  RH  023%=      5-min Rain = 0
KPFS 192155Z 17013G20KT 27/03 A298 RMK A01 T02670034  RH  023%=      5-min Rain = 0
KPFS 192200Z 17013G18KT 27/03 A298 RMK A01 T02650033  RH  023%=      5-min Rain = 0
KPFS 192205Z 18011G16KT 27/03 A298 RMK A01 T02650032  RH  023%=      5-min Rain = 0
KPFS 192210Z 18011KT 27/03 A298 RMK A01 T02660031  RH  022%=      5-min Rain = 0
KPFS 192215Z 18011G17KT 27/03 A298 RMK A01 T02650030  RH  022%=      5-min Rain = 0
KPFS 192220Z 17013G18KT 26/03 A2979 RMK A01 T02610026  RH  022%=      5-min Rain = 0
KPFS 192225Z 17012G17KT 26/02 A2979 RMK A01 T02570024  RH  022%=      5-min Rain = 0
KPFS 192230Z 16012KT 25/02 A2979 RMK A01 T02510021  RH  023%=      5-min Rain = 0
KPFS 192235Z 16011KT 25/02 A2979 RMK A01 T02510020  RH  023%=      5-min Rain = 0
KPFS 192240Z 17012G17KT 25/02 A2979 RMK A01 T02530021  RH  022%=      5-min Rain = 0
KPFS 192245Z 17012G17KT 26/02 A2979 RMK A01 T02550021  RH  022%=      5-min Rain = 0
KPFS 192250Z 17013KT 25/02 A2979 RMK A01 T02540020  RH  022%=      5-min Rain = 0
KPFS 192255Z 17009G14KT 26/02 A2979 RMK A01 T02550021  RH  022%=      5-min Rain = 0
KPFS 192300Z 17009KT 25/02 A298 RMK A01 T02500021  RH  023%=      5-min Rain = 0
KPFS 192305Z 17010KT 24/02 A298 RMK A01 T02440020  RH  023%=      5-min Rain = 0
KPFS 192310Z 16010KT 24/02 A298 RMK A01 T02400021  RH  024%=      5-min Rain = 0
KPFS 192315Z 16009KT 24/02 A2979 RMK A01 T02360023  RH  025%=      5-min Rain = 0
KPFS 192320Z 16009KT 23/03 A298 RMK A01 T02330025  RH  026%=      5-min Rain = 0
KPFS 192325Z 16009KT 23/03 A298 RMK A01 T02310026  RH  027%=      5-min Rain = 0
KPFS 192330Z 16009KT 23/03 A2979 RMK A01 T02270027  RH  027%=      5-min Rain = 0
KPFS 192335Z 15009KT 22/03 A2979 RMK A01 T02220028  RH  028%=      5-min Rain = 0
KPFS 192340Z 15009KT 22/03 A2979 RMK A01 T02160028  RH  030%=      5-min Rain = 0
KPFS 192345Z 15009KT 21/03 A2979 RMK A01 T02110029  RH  031%=      5-min Rain = 0
KPFS 192350Z 15009KT 21/03 A2979 RMK A01 T02070030  RH  031%=      5-min Rain = 0
KPFS 192355Z 15009KT 20/03 A2979 RMK A01 T02030030  RH  032%=      5-min Rain = 0
KPFS 200000Z 14009KT 20/03 A298 RMK A01 T01980031  RH  034%=      5-min Rain = 0
KPFS 200005Z 14010KT 19/03 A298 RMK A01 T01930032  RH  035%=      5-min Rain = 0
KPFS 200010Z 14010KT 19/03 A298 RMK A01 T01930032  RH  035%=      5-min Rain = 0
KPFS 200015Z 14010KT 19/03 A298 RMK A01 T01930033  RH  035%=      5-min Rain = 0
KPFS 200020Z 14010KT 19/03 A298 RMK A01 T01920034  RH  036%=      5-min Rain = 0
KPFS 200025Z 14010KT 19/04 A298 RMK A01 T01890035  RH  037%=      5-min Rain = 0
KPFS 200030Z 13011KT 19/04 A2979 RMK A01 T01870035  RH  037%=      5-min Rain = 0
KPFS 200035Z 14011KT 19/04 A2979 RMK A01 T01880035  RH  037%=      5-min Rain = 0
KPFS 200040Z 14011KT 19/04 A298 RMK A01 T01870035  RH  037%=      5-min Rain = 0
KPFS 200045Z 14011KT 18/04 A298 RMK A01 T01840036  RH  038%=      5-min Rain = 0
KPFS 200050Z 14011KT 18/04 A298 RMK A01 T01820037  RH  039%=      5-min Rain = 0
KPFS 200055Z 14011KT 18/04 A298 RMK A01 T01790038  RH  040%=      5-min Rain = 0
KPFS 200100Z 14011KT 18/04 A298 RMK A01 T01780040  RH  041%=      5-min Rain = 0
KPFS 200105Z 14011KT 18/04 A298 RMK A01 T01750041  RH  042%=      5-min Rain = 0
KPFS 200110Z 14011KT 17/04 A298 RMK A01 T01730043  RH  043%=      5-min Rain = 0
KPFS 200115Z 14011KT 17/04 A298 RMK A01 T01710044  RH  044%=      5-min Rain = 0
KPFS 200120Z 14011KT 17/05 A298 RMK A01 T01700046  RH  045%=      5-min Rain = 0
KPFS 200125Z 14010KT 17/05 A298 RMK A01 T01690048  RH  046%=      5-min Rain = 0
KPFS 200130Z 14010KT 17/05 A298 RMK A01 T01660050  RH  047%=      5-min Rain = 0
KPFS 200135Z 14010KT 17/05 A298 RMK A01 T01650051  RH  048%=      5-min Rain = 0
KPFS 200140Z 14011KT 17/05 A2979 RMK A01 T01650052  RH  048%=      5-min Rain = 0
KPFS 200145Z 14010KT 17/05 A298 RMK A01 T01670053  RH  048%=      5-min Rain = 0
KPFS 200150Z 14010KT 17/05 A298 RMK A01 T01670054  RH  048%=      5-min Rain = 0
KPFS 200155Z 14010KT 17/05 A298 RMK A01 T01680054  RH  048%=      5-min Rain = 0
KPFS 200200Z 15010KT 17/05 A298 RMK A01 T01670054  RH  048%=      5-min Rain = 0
KPFS 200205Z 14011KT 17/05 A298 RMK A01 T01660054  RH  048%=      5-min Rain = 0
KPFS 200210Z 15011KT 17/05 A298 RMK A01 T01660054  RH  049%=      5-min Rain = 0
KPFS 200215Z 15010KT 16/05 A298 RMK A01 T01640054  RH  049%=      5-min Rain = 0
KPFS 200220Z 15010KT 16/05 A298 RMK A01 T01620054  RH  050%=      5-min Rain = 0
KPFS 200225Z 15010KT 16/06 A298 RMK A01 T01610055  RH  050%=      5-min Rain = 0
KPFS 200230Z 15010KT 16/06 A298 RMK A01 T01600055  RH  051%=      5-min Rain = 0
KPFS 200235Z 15010KT 16/06 A298 RMK A01 T01590055  RH  051%=      5-min Rain = 0
KPFS 200240Z 16010KT 16/06 A298 RMK A01 T01580055  RH  052%=      5-min Rain = 0
KPFS 200245Z 16009KT 16/06 A298 RMK A01 T01560055  RH  052%=      5-min Rain = 0
KPFS 200250Z 16010KT 15/06 A298 RMK A01 T01540055  RH  053%=      5-min Rain = 0
KPFS 200255Z 15011KT 15/06 A298 RMK A01 T01540055  RH  053%=      5-min Rain = 0
KPFS 200300Z 15010KT 15/06 A298 RMK A01 T01530055  RH  053%=      5-min Rain = 0
KPFS 200305Z 15010KT 15/06 A298 RMK A01 T01520055  RH  054%=      5-min Rain = 0
KPFS 200310Z 15010KT 15/06 A298 RMK A01 T01500055  RH  054%=      5-min Rain = 0
KPFS 200315Z 16010KT 15/06 A298 RMK A01 T01490056  RH  055%=      5-min Rain = 0
KPFS 200320Z 16010KT 15/06 A2981 RMK A01 T01480055  RH  055%=      5-min Rain = 0
KPFS 200325Z 16011KT 15/06 A2981 RMK A01 T01460055  RH  056%=      5-min Rain = 0
KPFS 200330Z 16011KT 15/06 A2981 RMK A01 T01480056  RH  055%=      5-min Rain = 0
KPFS 200335Z 16011KT 15/06 A2981 RMK A01 T01510057  RH  055%=      5-min Rain = 0
KPFS 200340Z 16011KT 16/06 A2981 RMK A01 T01550058  RH  054%=      5-min Rain = 0
KPFS 200345Z 17012KT 16/06 A2981 RMK A01 T01570058  RH  053%=      5-min Rain = 0
KPFS 200350Z 17011KT 16/06 A2981 RMK A01 T01560058  RH  053%=      5-min Rain = 0
KPFS 200355Z 16012KT 16/06 A2981 RMK A01 T01560059  RH  053%=      5-min Rain = 0
KPFS 200400Z 16011KT 16/06 A2981 RMK A01 T01570059  RH  053%=      5-min Rain = 0
KPFS 200405Z 16011KT 16/06 A2981 RMK A01 T01560060  RH  054%=      5-min Rain = 0
KPFS 200410Z 17012KT 16/06 A2981 RMK A01 T01550060  RH  054%=      5-min Rain = 0
KPFS 200415Z 16012KT 15/06 A2981 RMK A01 T01530060  RH  055%=      5-min Rain = 0
KPFS 200420Z 16012KT 15/06 A2981 RMK A01 T01510060  RH  056%=      5-min Rain = 0
KPFS 200425Z 16012KT 15/06 A2981 RMK A01 T01520060  RH  056%=      5-min Rain = 0
KPFS 200430Z 17012KT 15/06 A298 RMK A01 T01530061  RH  055%=      5-min Rain = 0
KPFS 200435Z 16012KT 15/06 A298 RMK A01 T01530061  RH  055%=      5-min Rain = 0
KPFS 200440Z 16012KT 15/06 A298 RMK A01 T01520061  RH  056%=      5-min Rain = 0
KPFS 200445Z 16012KT 15/06 A298 RMK A01 T01510061  RH  056%=      5-min Rain = 0
KPFS 200450Z 16011KT 15/06 A298 RMK A01 T01490061  RH  057%=      5-min Rain = 0
KPFS 200455Z 16011KT 15/06 A298 RMK A01 T01450061  RH  058%=      5-min Rain = 0
KPFS 200500Z 16011KT 14/06 A298 RMK A01 T01430061  RH  059%=      5-min Rain = 0
KPFS 200505Z 16011KT 14/06 A298 RMK A01 T01410061  RH  060%=      5-min Rain = 0
KPFS 200510Z 16011KT 14/06 A298 RMK A01 T01380061  RH  061%=      5-min Rain = 0
KPFS 200515Z 16011KT 14/06 A2981 RMK A01 T01360061  RH  062%=      5-min Rain = 0
KPFS 200520Z 16011KT 14/06 A2981 RMK A01 T01360061  RH  062%=      5-min Rain = 0
KPFS 200525Z 16011KT 14/06 A2981 RMK A01 T01360062  RH  062%=      5-min Rain = 0
KPFS 200530Z 16011KT 14/06 A2981 RMK A01 T01350062  RH  063%=      5-min Rain = 0
KPFS 200535Z 16011KT 14/06 A2981 RMK A01 T01360062  RH  062%=      5-min Rain = 0
KPFS 200540Z 17010KT 13/06 A2981 RMK A01 T01340062  RH  063%=      5-min Rain = 0
KPFS 200545Z 17010KT 14/06 A2981 RMK A01 T01370063  RH  063%=      5-min Rain = 0
KPFS 200550Z 17010KT 14/06 A2982 RMK A01 T01390064  RH  062%=      5-min Rain = 0
KPFS 200555Z 16011KT 14/06 A2981 RMK A01 T01390064  RH  062%=      5-min Rain = 0

Page generated in 0.0093 seconds.